Time;durP1;ratioP1;P1;durP2;ratioP2;P2;SDS_P1;SDS_P2;PMS_P1;PMS_P2;Temp;Humidity;BMP_temperature;BMP_pressure;BME280_temperature;BME280_humidity;BME280_pressure;Samples;Min_cycle;Max_cycle;Signal;HPM_P1;HPM_P2
2023/05/26 00:01:53;;;;;;;;;;;20.40;43.20;;;;;;5110246;28;20007;-59
2023/05/26 00:04:21;;;;;;;;;;;20.40;43.20;;;;;;5091402;28;19924;-60
2023/05/26 00:06:53;;;;;;;;;;;20.40;43.20;;;;;;5093170;28;19955;-59
2023/05/26 00:09:20;;;;;;;;;;;20.40;43.20;;;;;;5108473;28;20305;-60
2023/05/26 00:11:46;;;;;;;;;;;20.40;43.20;;;;;;5108614;28;20358;-59
2023/05/26 00:14:15;;;;;;;;;;;20.40;43.20;;;;;;5110844;28;19924;-59
2023/05/26 00:16:42;;;;;;;;;;;20.40;43.20;;;;;;5093858;28;19959;-59
2023/05/26 00:19:09;;;;;;;;;;;20.30;43.10;;;;;;5090996;28;19942;-59
2023/05/26 00:21:36;;;;;;;;;;;20.30;43.10;;;;;;5093186;28;19955;-58
2023/05/26 00:24:05;;;;;;;;;;;20.30;43.10;;;;;;5092689;28;19920;-59
2023/05/26 00:26:32;;;;;;;;;;;20.30;43.00;;;;;;5090959;28;19927;-59
2023/05/26 00:28:59;;;;;;;;;;;20.30;42.90;;;;;;5093380;28;19932;-59
2023/05/26 00:31:26;;;;;;;;;;;20.30;42.90;;;;;;5110542;28;19981;-59
2023/05/26 00:33:52;;;;;;;;;;;20.30;42.90;;;;;;5091502;28;19924;-60
2023/05/26 00:36:19;;;;;;;;;;;20.30;42.90;;;;;;5109880;28;19965;-60
2023/05/26 00:38:46;;;;;;;;;;;20.30;42.90;;;;;;5110645;28;20419;-60
2023/05/26 00:41:14;;;;;;;;;;;20.20;42.80;;;;;;5093858;28;19965;-60
2023/05/26 00:43:41;;;;;;;;;;;20.20;42.80;;;;;;5110736;28;19920;-60
2023/05/26 00:46:08;;;;;;;;;;;20.20;42.80;;;;;;5107933;28;19920;-60
2023/05/26 00:48:34;;;;;;;;;;;20.20;42.80;;;;;;5094062;28;20340;-60
2023/05/26 00:51:01;;;;;;;;;;;20.20;42.80;;;;;;5109426;28;19924;-60
2023/05/26 00:53:28;;;;;;;;;;;20.20;42.80;;;;;;5094100;28;19965;-59
2023/05/26 00:55:55;;;;;;;;;;;20.20;42.80;;;;;;5108501;28;19924;-59
2023/05/26 00:58:24;;;;;;;;;;;20.20;42.70;;;;;;5109483;28;19920;-60
2023/05/26 01:00:51;;;;;;;;;;;20.20;42.70;;;;;;5092239;28;20357;-60
2023/05/26 01:03:18;;;;;;;;;;;20.20;42.60;;;;;;5110396;28;19920;-60
2023/05/26 01:05:44;;;;;;;;;;;20.20;42.60;;;;;;5093304;28;19931;-60
2023/05/26 01:08:11;;;;;;;;;;;20.20;42.60;;;;;;5092599;28;19999;-60
2023/05/26 01:10:38;;;;;;;;;;;20.20;42.60;;;;;;5091643;28;20331;-60
2023/05/26 01:13:06;;;;;;;;;;;20.20;42.60;;;;;;5107353;28;19993;-58
2023/05/26 01:15:36;;;;;;;;;;;20.20;43.10;;;;;;5107717;28;19920;-59
2023/05/26 01:18:04;;;;;;;;;;;20.20;42.50;;;;;;5109616;28;19920;-59
2023/05/26 01:20:31;;;;;;;;;;;20.20;42.50;;;;;;5094078;28;19926;-59
2023/05/26 01:23:00;;;;;;;;;;;20.20;42.50;;;;;;5091640;28;19927;-60
2023/05/26 01:25:31;;;;;;;;;;;20.20;42.40;;;;;;5107529;28;19920;-59
2023/05/26 01:28:06;;;;;;;;;;;20.10;42.20;;;;;;5109389;28;19942;-60
2023/05/26 01:30:33;;;;;;;;;;;20.10;42.20;;;;;;5107363;28;19920;-59
2023/05/26 01:33:00;;;;;;;;;;;20.10;42.20;;;;;;5091446;28;20027;-59
2023/05/26 01:35:27;;;;;;;;;;;20.10;42.20;;;;;;5092781;28;19920;-59
2023/05/26 01:37:53;;;;;;;;;;;20.10;42.10;;;;;;5090520;28;19981;-59
2023/05/26 01:40:20;;;;;;;;;;;20.10;42.20;;;;;;5093471;28;19973;-60
2023/05/26 01:42:49;;;;;;;;;;;20.10;42.10;;;;;;5092329;28;19955;-60
2023/05/26 01:45:17;;;;;;;;;;;20.10;42.10;;;;;;5110946;28;19924;-60
2023/05/26 01:47:44;;;;;;;;;;;20.10;42.10;;;;;;5095451;28;19973;-60
2023/05/26 01:50:11;;;;;;;;;;;20.10;42.00;;;;;;5113184;28;19920;-60
2023/05/26 01:52:38;;;;;;;;;;;20.00;41.90;;;;;;5110138;28;19951;-60
2023/05/26 01:55:07;;;;;;;;;;;20.00;41.90;;;;;;5090068;28;19940;-59
2023/05/26 01:57:34;;;;;;;;;;;20.00;41.80;;;;;;5092902;28;19955;-60
2023/05/26 02:00:01;;;;;;;;;;;20.00;41.80;;;;;;5109868;28;19926;-60
2023/05/26 02:02:29;;;;;;;;;;;20.00;41.70;;;;;;5109094;28;19920;-59
2023/05/26 02:04:56;;;;;;;;;;;20.00;41.70;;;;;;5092520;28;19974;-60
2023/05/26 02:07:22;;;;;;;;;;;20.00;41.70;;;;;;5092832;28;19935;-60
2023/05/26 02:09:50;;;;;;;;;;;20.00;41.70;;;;;;5091614;28;20246;-60
2023/05/26 02:12:16;;;;;;;;;;;20.00;41.70;;;;;;5108701;28;20247;-60
2023/05/26 02:14:43;;;;;;;;;;;20.00;41.70;;;;;;5110328;28;20320;-59
2023/05/26 02:17:10;;;;;;;;;;;20.00;41.60;;;;;;5094034;28;19920;-60
2023/05/26 02:19:40;;;;;;;;;;;20.00;41.60;;;;;;5108258;28;19928;-60
2023/05/26 02:22:07;;;;;;;;;;;20.00;41.50;;;;;;5109318;28;19927;-60
2023/05/26 02:24:33;;;;;;;;;;;20.00;42.10;;;;;;5110145;28;19920;-59
2023/05/26 02:27:00;;;;;;;;;;;20.00;41.50;;;;;;5083221;28;19955;-59
2023/05/26 02:29:27;;;;;;;;;;;20.00;41.40;;;;;;5107920;28;19928;-59
2023/05/26 02:31:53;;;;;;;;;;;20.00;41.50;;;;;;5110322;28;19920;-59
2023/05/26 02:34:21;;;;;;;;;;;20.00;41.40;;;;;;5112198;28;19926;-60
2023/05/26 02:36:49;;;;;;;;;;;20.00;41.30;;;;;;5096916;28;19920;-60
2023/05/26 02:39:16;;;;;;;;;;;20.00;41.30;;;;;;5111076;28;19950;-60
2023/05/26 02:41:42;;;;;;;;;;;20.00;41.20;;;;;;5112051;28;19920;-60
2023/05/26 02:44:09;;;;;;;;;;;19.90;41.20;;;;;;5093324;28;20012;-60
2023/05/26 02:46:36;;;;;;;;;;;19.90;41.20;;;;;;5095770;28;20443;-60
2023/05/26 02:49:02;;;;;;;;;;;20.00;41.30;;;;;;5110349;28;19924;-60
2023/05/26 02:51:29;;;;;;;;;;;20.00;41.20;;;;;;5111881;28;19963;-60
2023/05/26 02:53:57;;;;;;;;;;;19.90;41.10;;;;;;5109698;28;19948;-60
2023/05/26 02:56:24;;;;;;;;;;;19.90;41.10;;;;;;5111814;28;19920;-60
2023/05/26 02:58:51;;;;;;;;;;;19.90;41.10;;;;;;5096279;28;19928;-60
2023/05/26 03:01:17;;;;;;;;;;;19.90;41.10;;;;;;5112077;28;19924;-60
2023/05/26 03:03:44;;;;;;;;;;;19.90;41.10;;;;;;5111769;28;20290;-60
2023/05/26 03:06:11;;;;;;;;;;;19.90;41.00;;;;;;5111777;28;19977;-60
2023/05/26 03:08:38;;;;;;;;;;;19.90;41.00;;;;;;5111344;28;19920;-60
2023/05/26 03:11:06;;;;;;;;;;;19.90;40.90;;;;;;5094678;28;19920;-60
2023/05/26 03:13:32;;;;;;;;;;;19.90;40.90;;;;;;5094257;28;20018;-60
2023/05/26 03:15:59;;;;;;;;;;;19.90;40.80;;;;;;5094137;28;19920;-60
2023/05/26 03:18:26;;;;;;;;;;;19.90;40.80;;;;;;5112170;28;19924;-60
2023/05/26 03:20:53;;;;;;;;;;;19.90;40.80;;;;;;5094281;28;19919;-60
2023/05/26 03:23:19;;;;;;;;;;;19.90;40.70;;;;;;5093575;28;19932;-60
2023/05/26 03:25:46;;;;;;;;;;;19.80;40.70;;;;;;5094441;28;19924;-60
2023/05/26 03:28:15;;;;;;;;;;;19.80;40.70;;;;;;5094735;28;19965;-60
2023/05/26 03:30:41;;;;;;;;;;;19.80;40.80;;;;;;5111464;28;19969;-60
2023/05/26 03:33:08;;;;;;;;;;;19.80;40.80;;;;;;5109366;28;19946;-60
2023/05/26 03:35:35;;;;;;;;;;;19.80;40.80;;;;;;5095478;28;19920;-60
2023/05/26 03:38:02;;;;;;;;;;;19.80;40.80;;;;;;5108515;28;19920;-60
2023/05/26 03:40:28;;;;;;;;;;;19.80;40.80;;;;;;5095293;28;19944;-60
2023/05/26 03:42:55;;;;;;;;;;;19.80;40.80;;;;;;5094070;28;19920;-60
2023/05/26 03:45:23;;;;;;;;;;;19.80;40.70;;;;;;5092316;28;19924;-60
2023/05/26 03:47:50;;;;;;;;;;;19.80;40.80;;;;;;5110582;28;19920;-60
2023/05/26 03:50:17;;;;;;;;;;;19.80;40.80;;;;;;5109398;28;19924;-60
2023/05/26 03:52:45;;;;;;;;;;;19.80;40.80;;;;;;5110883;28;19965;-60
2023/05/26 03:55:12;;;;;;;;;;;19.80;40.80;;;;;;5108567;28;19920;-60
2023/05/26 03:57:38;;;;;;;;;;;19.80;40.80;;;;;;5111184;28;19970;-60
2023/05/26 04:00:07;;;;;;;;;;;19.80;40.80;;;;;;5110974;28;19920;-60
2023/05/26 04:02:36;;;;;;;;;;;19.80;40.80;;;;;;5108167;28;19924;-60
2023/05/26 04:05:02;;;;;;;;;;;19.80;40.80;;;;;;5109352;28;19920;-60
2023/05/26 04:07:29;;;;;;;;;;;19.80;40.80;;;;;;5106829;28;19924;-60
2023/05/26 04:09:56;;;;;;;;;;;19.80;40.70;;;;;;5094290;28;19927;-60
2023/05/26 04:12:23;;;;;;;;;;;19.80;40.70;;;;;;5108548;28;19955;-59
2023/05/26 04:14:50;;;;;;;;;;;19.80;40.70;;;;;;5092820;28;19920;-60
2023/05/26 04:17:17;;;;;;;;;;;19.80;40.60;;;;;;5094851;28;19920;-60
2023/05/26 04:19:45;;;;;;;;;;;19.80;40.60;;;;;;5092687;28;19920;-60
2023/05/26 04:22:12;;;;;;;;;;;19.80;40.60;;;;;;5091516;28;19927;-59
2023/05/26 04:24:39;;;;;;;;;;;19.80;40.60;;;;;;5090149;28;19920;-60
2023/05/26 04:27:07;;;;;;;;;;;19.80;40.60;;;;;;5091312;28;19993;-60
2023/05/26 04:29:34;;;;;;;;;;;19.80;40.60;;;;;;5091165;28;19920;-60
2023/05/26 04:32:01;;;;;;;;;;;19.80;40.60;;;;;;5092453;28;19959;-60
2023/05/26 04:34:28;;;;;;;;;;;19.80;40.60;;;;;;5110290;28;19920;-60
2023/05/26 04:37:03;;;;;;;;;;;19.80;40.60;;;;;;5090485;28;19973;-59
2023/05/26 04:39:29;;;;;;;;;;;19.80;40.60;;;;;;5088322;28;19924;-59
2023/05/26 04:41:57;;;;;;;;;;;19.80;40.60;;;;;;5107075;28;19920;-60
2023/05/26 04:44:25;;;;;;;;;;;19.80;40.70;;;;;;5092070;28;19954;-60
2023/05/26 04:46:52;;;;;;;;;;;19.80;40.70;;;;;;5098857;28;19920;-60
2023/05/26 04:49:22;;;;;;;;;;;19.80;40.70;;;;;;5090195;28;19920;-60
2023/05/26 04:51:50;;;;;;;;;;;19.80;40.70;;;;;;5105273;28;19920;-59
2023/05/26 04:54:18;;;;;;;;;;;19.80;40.70;;;;;;5089913;28;19954;-59
2023/05/26 04:56:45;;;;;;;;;;;19.80;40.70;;;;;;5086954;28;19979;-60
2023/05/26 04:59:12;;;;;;;;;;;19.80;40.60;;;;;;5080680;28;19924;-59
2023/05/26 05:01:39;;;;;;;;;;;19.80;40.60;;;;;;5103514;28;19928;-59
2023/05/26 05:04:06;;;;;;;;;;;19.80;40.70;;;;;;5107565;28;19924;-59
2023/05/26 05:06:33;;;;;;;;;;;19.80;40.70;;;;;;5113477;28;19969;-59
2023/05/26 05:09:01;;;;;;;;;;;19.80;40.60;;;;;;5089025;28;19966;-59
2023/05/26 05:11:29;;;;;;;;;;;19.80;40.60;;;;;;5090020;28;19920;-59
2023/05/26 05:13:56;;;;;;;;;;;19.80;40.50;;;;;;5091225;28;19920;-60
2023/05/26 05:16:23;;;;;;;;;;;19.70;40.40;;;;;;5086715;28;19920;-59
2023/05/26 05:18:49;;;;;;;;;;;19.70;40.50;;;;;;5114512;28;19927;-60
2023/05/26 05:21:17;;;;;;;;;;;19.70;40.50;;;;;;5114471;28;19920;-60
2023/05/26 05:23:43;;;;;;;;;;;19.70;40.50;;;;;;5096655;28;20376;-60
2023/05/26 05:26:10;;;;;;;;;;;19.70;40.50;;;;;;5097756;28;19920;-60
2023/05/26 05:28:38;;;;;;;;;;;19.70;40.50;;;;;;5113541;28;19969;-60
2023/05/26 05:31:05;;;;;;;;;;;19.70;40.50;;;;;;5113197;28;19977;-60
2023/05/26 05:33:32;;;;;;;;;;;19.70;40.50;;;;;;5111761;28;19966;-60
2023/05/26 05:35:59;;;;;;;;;;;19.70;40.50;;;;;;5096148;28;19920;-60
2023/05/26 05:38:25;;;;;;;;;;;19.70;40.60;;;;;;5096917;28;19924;-60
2023/05/26 05:40:52;;;;;;;;;;;19.70;40.60;;;;;;5096550;28;19927;-60
2023/05/26 05:43:19;;;;;;;;;;;19.70;40.60;;;;;;5113586;28;19946;-60
2023/05/26 05:45:47;;;;;;;;;;;19.70;40.60;;;;;;5095578;28;19920;-60
2023/05/26 05:48:14;;;;;;;;;;;19.70;40.60;;;;;;5095313;28;20316;-59
2023/05/26 05:50:41;;;;;;;;;;;19.60;40.50;;;;;;5094971;28;19920;-59
2023/05/26 05:53:07;;;;;;;;;;;19.60;40.50;;;;;;5096933;28;20337;-60
2023/05/26 05:55:34;;;;;;;;;;;19.70;40.50;;;;;;5094193;28;19920;-59
2023/05/26 05:58:01;;;;;;;;;;;19.60;40.50;;;;;;5096900;28;19920;-60
2023/05/26 06:00:28;;;;;;;;;;;19.60;40.50;;;;;;5094182;28;19981;-60
2023/05/26 06:02:56;;;;;;;;;;;19.60;40.50;;;;;;5096365;28;19969;-60
2023/05/26 06:05:23;;;;;;;;;;;19.60;40.50;;;;;;5092857;28;20014;-59
2023/05/26 06:07:49;;;;;;;;;;;19.60;40.60;;;;;;5112912;28;19924;-60
2023/05/26 06:10:16;;;;;;;;;;;19.60;40.60;;;;;;5109377;28;19920;-59
2023/05/26 06:12:43;;;;;;;;;;;19.60;40.60;;;;;;5094246;28;19920;-59
2023/05/26 06:15:10;;;;;;;;;;;19.60;40.60;;;;;;5096672;28;20037;-60
2023/05/26 06:17:37;;;;;;;;;;;19.60;40.60;;;;;;5094072;28;20313;-60
2023/05/26 06:20:06;;;;;;;;;;;19.70;40.60;;;;;;5106766;28;19972;-60
2023/05/26 06:22:36;;;;;;;;;;;19.70;40.60;;;;;;5116630;28;19966;-60
2023/05/26 06:25:03;;;;;;;;;;;19.70;40.60;;;;;;5133624;27;19926;-60
2023/05/26 06:27:29;;;;;;;;;;;19.70;40.50;;;;;;5115800;28;19923;-60
2023/05/26 06:29:56;;;;;;;;;;;19.70;40.50;;;;;;5094571;28;19965;-59
2023/05/26 06:32:23;;;;;;;;;;;19.70;40.30;;;;;;5112456;28;19920;-60
2023/05/26 06:34:49;;;;;;;;;;;19.70;40.20;;;;;;5108731;28;19989;-61
2023/05/26 06:37:18;;;;;;;;;;;19.60;40.10;;;;;;5093670;28;19927;-59
2023/05/26 06:39:44;;;;;;;;;;;19.70;40.30;;;;;;5091016;28;19970;-60
2023/05/26 06:42:11;;;;;;;;;;;19.60;40.40;;;;;;5092746;28;20243;-60
2023/05/26 06:44:38;;;;;;;;;;;19.70;40.50;;;;;;5092298;28;20336;-61
2023/05/26 06:47:05;;;;;;;;;;;19.70;40.50;;;;;;5108680;28;20326;-60
2023/05/26 06:49:32;;;;;;;;;;;19.70;40.50;;;;;;5092360;28;19920;-60
2023/05/26 06:51:59;;;;;;;;;;;19.70;40.40;;;;;;5093877;28;19931;-59
2023/05/26 06:54:27;;;;;;;;;;;19.70;40.30;;;;;;5093999;28;19920;-60
2023/05/26 06:56:54;;;;;;;;;;;19.70;40.20;;;;;;5092735;28;19964;-60
2023/05/26 06:59:21;;;;;;;;;;;19.70;40.10;;;;;;5091222;28;19920;-59
2023/05/26 07:01:47;;;;;;;;;;;19.70;40.10;;;;;;5091127;28;19969;-59
2023/05/26 07:04:14;;;;;;;;;;;19.70;40.10;;;;;;5091413;28;19920;-60
2023/05/26 07:06:41;;;;;;;;;;;19.70;39.90;;;;;;5091058;28;19997;-60
2023/05/26 07:09:08;;;;;;;;;;;19.60;39.60;;;;;;5089165;28;19920;-60
2023/05/26 07:11:36;;;;;;;;;;;19.60;39.30;;;;;;5093349;28;19970;-60
2023/05/26 07:14:03;;;;;;;;;;;19.60;39.40;;;;;;5093306;28;19920;-59
2023/05/26 07:16:29;;;;;;;;;;;19.60;39.60;;;;;;5107734;28;20158;-59
2023/05/26 07:18:56;;;;;;;;;;;19.60;39.80;;;;;;5105584;28;19920;-59
2023/05/26 07:21:25;;;;;;;;;;;19.60;39.90;;;;;;5093366;28;19927;-59
2023/05/26 07:23:52;;;;;;;;;;;19.60;39.80;;;;;;5095054;28;19969;-60
2023/05/26 07:26:18;;;;;;;;;;;19.60;39.70;;;;;;5094024;28;19927;-60
2023/05/26 07:28:48;;;;;;;;;;;19.60;39.80;;;;;;5094414;28;19920;-60
2023/05/26 07:31:14;;;;;;;;;;;19.60;39.80;;;;;;5108429;28;19967;-60
2023/05/26 07:33:41;;;;;;;;;;;19.60;39.70;;;;;;5092327;28;19926;-59
2023/05/26 07:36:08;;;;;;;;;;;19.60;39.60;;;;;;5091432;28;19950;-59
2023/05/26 07:38:35;;;;;;;;;;;19.60;39.50;;;;;;5090687;28;19923;-59
2023/05/26 07:41:01;;;;;;;;;;;19.60;39.60;;;;;;5090260;28;19921;-59
2023/05/26 07:43:28;;;;;;;;;;;19.60;39.70;;;;;;5092002;28;19920;-59
2023/05/26 07:45:56;;;;;;;;;;;19.60;39.70;;;;;;5091963;28;19969;-59
2023/05/26 07:48:23;;;;;;;;;;;19.60;39.60;;;;;;5108896;28;19920;-59
2023/05/26 07:50:49;;;;;;;;;;;19.60;39.70;;;;;;5092677;28;20354;-60
2023/05/26 07:53:16;;;;;;;;;;;19.60;39.70;;;;;;5105396;28;20382;-59
2023/05/26 07:55:43;;;;;;;;;;;19.70;39.80;;;;;;5107627;28;19981;-60
2023/05/26 07:58:11;;;;;;;;;;;19.70;39.80;;;;;;5097538;28;19932;-60
2023/05/26 08:00:37;;;;;;;;;;;19.70;39.60;;;;;;5098817;28;19923;-60
2023/05/26 08:03:06;;;;;;;;;;;19.70;39.60;;;;;;5089612;28;20018;-60
2023/05/26 08:05:32;;;;;;;;;;;19.70;39.60;;;;;;5089751;28;19920;-61
2023/05/26 08:07:59;;;;;;;;;;;19.70;39.60;;;;;;5092337;28;19926;-60
2023/05/26 08:10:26;;;;;;;;;;;19.70;39.60;;;;;;5098774;28;19970;-59
2023/05/26 08:12:53;;;;;;;;;;;19.70;39.60;;;;;;5091505;28;19959;-60
2023/05/26 08:15:20;;;;;;;;;;;19.70;39.70;;;;;;5091227;28;19973;-59
2023/05/26 08:17:47;;;;;;;;;;;19.70;39.70;;;;;;5091506;28;19995;-59
2023/05/26 08:20:15;;;;;;;;;;;19.70;39.60;;;;;;5110930;27;19969;-60
2023/05/26 08:22:42;;;;;;;;;;;19.70;39.40;;;;;;5089927;28;19920;-60
2023/05/26 08:25:09;;;;;;;;;;;19.70;39.40;;;;;;5090467;28;19924;-60
2023/05/26 08:27:35;;;;;;;;;;;19.70;39.50;;;;;;5105575;28;19920;-60
2023/05/26 08:30:02;;;;;;;;;;;19.70;39.40;;;;;;5094358;28;19978;-59
2023/05/26 08:32:29;;;;;;;;;;;19.70;39.40;;;;;;5087792;28;19935;-59
2023/05/26 08:34:56;;;;;;;;;;;19.70;39.20;;;;;;5108418;28;19920;-59
2023/05/26 08:37:24;;;;;;;;;;;19.70;39.10;;;;;;5093886;28;19927;-59
2023/05/26 08:39:51;;;;;;;;;;;19.70;38.80;;;;;;5110151;28;19924;-59
2023/05/26 08:42:19;;;;;;;;;;;19.70;38.90;;;;;;5109846;28;19943;-59
2023/05/26 08:44:46;;;;;;;;;;;19.70;39.00;;;;;;5093115;28;20316;-59
2023/05/26 08:47:12;;;;;;;;;;;19.70;38.90;;;;;;5107865;28;19973;-59
2023/05/26 08:49:41;;;;;;;;;;;19.70;38.50;;;;;;5106512;28;19928;-58
2023/05/26 08:52:13;;;;;;;;;;;19.70;38.60;;;;;;5093155;28;19919;-60
2023/05/26 08:54:41;;;;;;;;;;;19.60;39.30;;;;;;5110929;28;19973;-60
2023/05/26 08:57:08;;;;;;;;;;;19.70;38.80;;;;;;5089613;28;19981;-60
2023/05/26 08:59:34;;;;;;;;;;;19.60;38.80;;;;;;5091346;28;19925;-61
2023/05/26 09:02:03;;;;;;;;;;;19.70;38.90;;;;;;5103696;28;20527;-60
2023/05/26 09:04:30;;;;;;;;;;;19.70;39.00;;;;;;5092120;28;19973;-59
2023/05/26 09:06:57;;;;;;;;;;;19.70;39.00;;;;;;5092852;28;19973;-60
2023/05/26 09:09:24;;;;;;;;;;;19.70;39.00;;;;;;5091804;28;20351;-59
2023/05/26 09:11:53;;;;;;;;;;;19.70;38.90;;;;;;5098625;28;19927;-59
2023/05/26 09:14:20;;;;;;;;;;;19.70;38.60;;;;;;5089303;28;19920;-60
2023/05/26 09:16:47;;;;;;;;;;;19.70;38.40;;;;;;5092089;28;19942;-60
2023/05/26 09:19:14;;;;;;;;;;;19.70;38.40;;;;;;5090519;28;19920;-58
2023/05/26 09:21:45;;;;;;;;;;;19.70;38.70;;;;;;5090265;28;19969;-61
2023/05/26 09:24:12;;;;;;;;;;;19.70;38.80;;;;;;5091354;28;19924;-60
2023/05/26 09:26:40;;;;;;;;;;;19.70;38.80;;;;;;5090580;28;19977;-59
2023/05/26 09:29:08;;;;;;;;;;;19.70;38.70;;;;;;5090997;28;20420;-60
2023/05/26 09:31:39;;;;;;;;;;;19.70;38.80;;;;;;5106870;28;19920;-62
2023/05/26 09:34:07;;;;;;;;;;;19.80;38.90;;;;;;5106918;28;20051;-59
2023/05/26 09:36:35;;;;;;;;;;;19.80;38.80;;;;;;5109566;28;19920;-58
2023/05/26 09:39:01;;;;;;;;;;;19.80;38.90;;;;;;5091862;28;20261;-59
2023/05/26 09:41:35;;;;;;;;;;;19.80;38.90;;;;;;5091598;28;19920;-61
2023/05/26 09:44:07;;;;;;;;;;;19.80;39.00;;;;;;5108049;28;19920;-60
2023/05/26 09:46:35;;;;;;;;;;;19.80;39.00;;;;;;5104952;28;19920;-59
2023/05/26 09:49:02;;;;;;;;;;;19.80;39.10;;;;;;5090586;28;19920;-60
2023/05/26 09:51:30;;;;;;;;;;;19.80;39.00;;;;;;5085115;28;19965;-60
2023/05/26 09:53:57;;;;;;;;;;;19.90;38.90;;;;;;5102729;28;19920;-60
2023/05/26 09:56:24;;;;;;;;;;;19.90;38.90;;;;;;5101361;28;20022;-58
2023/05/26 09:58:50;;;;;;;;;;;19.90;39.00;;;;;;5106111;28;19920;-59
2023/05/26 10:01:17;;;;;;;;;;;19.90;39.00;;;;;;5089409;28;19932;-59
2023/05/26 10:03:46;;;;;;;;;;;19.90;39.00;;;;;;5089385;28;19927;-59
2023/05/26 10:06:12;;;;;;;;;;;19.90;39.00;;;;;;5093615;28;19976;-59
2023/05/26 10:08:39;;;;;;;;;;;19.90;39.10;;;;;;5110054;28;19924;-59
2023/05/26 10:11:06;;;;;;;;;;;19.90;39.10;;;;;;5101455;28;20043;-59
2023/05/26 10:13:33;;;;;;;;;;;19.90;39.10;;;;;;5092686;28;19924;-58
2023/05/26 10:15:59;;;;;;;;;;;19.90;39.20;;;;;;5094455;28;19927;-58
2023/05/26 10:18:26;;;;;;;;;;;20.00;39.30;;;;;;5111075;28;19927;-58
2023/05/26 10:20:54;;;;;;;;;;;20.00;39.30;;;;;;5094326;28;20281;-59
2023/05/26 10:23:23;;;;;;;;;;;20.00;39.30;;;;;;5094925;28;19924;-59
2023/05/26 10:25:55;;;;;;;;;;;20.00;39.30;;;;;;5092008;28;19920;-59
2023/05/26 10:28:24;;;;;;;;;;;20.00;39.10;;;;;;5111405;28;19920;-60
2023/05/26 10:30:51;;;;;;;;;;;20.00;39.10;;;;;;5110058;28;19920;-60
2023/05/26 10:33:17;;;;;;;;;;;20.00;39.20;;;;;;5093248;28;19927;-60
2023/05/26 10:35:52;;;;;;;;;;;20.00;39.10;;;;;;5098715;28;19927;-60
2023/05/26 10:38:22;;;;;;;;;;;20.00;39.20;;;;;;5110471;28;19927;-60
2023/05/26 10:40:50;;;;;;;;;;;20.00;39.20;;;;;;5094200;28;20274;-60
2023/05/26 10:43:21;;;;;;;;;;;20.00;39.20;;;;;;5110675;28;19920;-60
2023/05/26 10:45:50;;;;;;;;;;;20.00;39.20;;;;;;5110921;28;19974;-60
2023/05/26 10:48:17;;;;;;;;;;;20.00;39.20;;;;;;5091856;28;19920;-59
2023/05/26 10:51:06;;;;;;;;;;;20.00;38.80;;;;;;5093401;28;19919;-59
2023/05/26 10:53:35;;;;;;;;;;;20.00;38.70;;;;;;5093757;28;19924;-59
2023/05/26 10:56:03;;;;;;;;;;;20.00;38.70;;;;;;5094810;28;19973;-59
2023/05/26 10:58:33;;;;;;;;;;;20.00;38.80;;;;;;5094712;28;20419;-59
2023/05/26 11:01:00;;;;;;;;;;;20.00;38.80;;;;;;5094718;28;19920;-59
2023/05/26 11:03:35;;;;;;;;;;;20.00;38.90;;;;;;5093201;28;20015;-59
2023/05/26 11:06:02;;;;;;;;;;;20.00;39.00;;;;;;5092199;28;19966;-59
2023/05/26 11:08:34;;;;;;;;;;;20.00;39.10;;;;;;5094686;28;19920;-60
2023/05/26 11:11:02;;;;;;;;;;;20.00;39.10;;;;;;5109803;28;19920;-60
2023/05/26 11:13:41;;;;;;;;;;;20.00;39.20;;;;;;5095928;28;19920;-59
2023/05/26 11:16:12;;;;;;;;;;;20.00;39.00;;;;;;5092862;28;19920;-60
2023/05/26 11:18:39;;;;;;;;;;;20.10;38.90;;;;;;5093521;28;20290;-59
2023/05/26 11:21:06;;;;;;;;;;;20.10;39.00;;;;;;5095750;28;19920;-59
2023/05/26 11:23:37;;;;;;;;;;;20.10;39.20;;;;;;5094048;28;19924;-59
2023/05/26 11:26:10;;;;;;;;;;;20.10;39.40;;;;;;5112270;28;19984;-59
2023/05/26 11:28:40;;;;;;;;;;;20.10;39.60;;;;;;5093822;28;19942;-59
2023/05/26 11:31:09;;;;;;;;;;;20.10;39.70;;;;;;5092702;28;19920;-60
2023/05/26 11:33:36;;;;;;;;;;;20.20;39.80;;;;;;5091830;28;19948;-59
2023/05/26 11:36:06;;;;;;;;;;;20.20;39.80;;;;;;5094705;28;19927;-59
2023/05/26 11:38:34;;;;;;;;;;;20.20;39.80;;;;;;5092706;28;19965;-60
2023/05/26 11:41:03;;;;;;;;;;;20.20;39.90;;;;;;5110804;28;19920;-60
2023/05/26 11:43:29;;;;;;;;;;;20.20;39.90;;;;;;5094330;28;19981;-59
2023/05/26 11:45:58;;;;;;;;;;;20.20;39.90;;;;;;5110936;28;19977;-59
2023/05/26 11:48:25;;;;;;;;;;;20.20;39.90;;;;;;5092247;28;20273;-59
2023/05/26 11:50:52;;;;;;;;;;;20.20;39.80;;;;;;5093599;28;20434;-59
2023/05/26 11:53:18;;;;;;;;;;;20.20;39.80;;;;;;5099929;28;19920;-60
2023/05/26 11:55:47;;;;;;;;;;;20.20;39.70;;;;;;5091728;28;20429;-59
2023/05/26 11:58:14;;;;;;;;;;;20.20;39.70;;;;;;5110980;28;19951;-59
2023/05/26 12:00:40;;;;;;;;;;;20.20;39.70;;;;;;5108773;28;19920;-59
2023/05/26 12:03:17;;;;;;;;;;;20.20;39.60;;;;;;5091934;28;19920;-58
2023/05/26 12:05:44;;;;;;;;;;;20.20;39.60;;;;;;5110633;28;19973;-58
2023/05/26 12:08:10;;;;;;;;;;;20.30;39.70;;;;;;5092608;28;19926;-58
2023/05/26 12:10:39;;;;;;;;;;;20.30;39.50;;;;;;5111151;28;19920;-59
2023/05/26 12:13:07;;;;;;;;;;;20.30;39.60;;;;;;5094199;28;19924;-59
2023/05/26 12:15:34;;;;;;;;;;;20.30;39.60;;;;;;5083518;28;19928;-59
2023/05/26 12:18:02;;;;;;;;;;;20.30;39.60;;;;;;5093972;28;19978;-60
2023/05/26 12:20:28;;;;;;;;;;;20.30;39.40;;;;;;5101745;28;20420;-59
2023/05/26 12:23:01;;;;;;;;;;;20.30;39.40;;;;;;5098844;28;19927;-58
2023/05/26 12:25:28;;;;;;;;;;;20.20;39.40;;;;;;5109506;28;19963;-59
2023/05/26 12:27:55;;;;;;;;;;;20.20;39.40;;;;;;5092019;28;19924;-58
2023/05/26 12:30:24;;;;;;;;;;;20.20;39.50;;;;;;5106759;28;19927;-59
2023/05/26 12:32:51;;;;;;;;;;;20.30;39.60;;;;;;5089681;28;19970;-58
2023/05/26 12:35:18;;;;;;;;;;;20.30;39.50;;;;;;5106796;28;19923;-58
2023/05/26 12:37:45;;;;;;;;;;;20.30;39.50;;;;;;5089880;28;20316;-58
2023/05/26 12:40:13;;;;;;;;;;;20.30;39.50;;;;;;5090418;28;19920;-58
2023/05/26 12:42:39;;;;;;;;;;;20.30;39.60;;;;;;5090069;28;19966;-58
2023/05/26 12:45:07;;;;;;;;;;;20.30;39.50;;;;;;5088728;28;20416;-58
2023/05/26 12:47:35;;;;;;;;;;;20.30;39.60;;;;;;5090122;28;19981;-59
2023/05/26 12:50:02;;;;;;;;;;;20.30;39.60;;;;;;5106790;28;19959;-59
2023/05/26 12:52:30;;;;;;;;;;;20.30;39.60;;;;;;5104899;28;19970;-59
2023/05/26 12:54:57;;;;;;;;;;;20.30;39.50;;;;;;5091590;28;19943;-60
2023/05/26 12:57:24;;;;;;;;;;;20.30;39.40;;;;;;5093670;28;19969;-59
2023/05/26 12:59:51;;;;;;;;;;;20.30;39.40;;;;;;5109537;28;20351;-59
2023/05/26 13:02:18;;;;;;;;;;;20.30;39.50;;;;;;5107427;28;19962;-58
2023/05/26 13:04:46;;;;;;;;;;;20.30;39.60;;;;;;5107055;28;19920;-58
2023/05/26 13:07:13;;;;;;;;;;;20.30;39.60;;;;;;5106710;28;19920;-58
2023/05/26 13:09:40;;;;;;;;;;;20.30;39.60;;;;;;5081283;28;19924;-58
2023/05/26 13:12:07;;;;;;;;;;;20.30;39.60;;;;;;5090884;28;20363;-58
2023/05/26 13:14:34;;;;;;;;;;;20.30;39.60;;;;;;5109544;28;19920;-58
2023/05/26 13:17:01;;;;;;;;;;;20.30;39.60;;;;;;5097763;28;19920;-59
2023/05/26 13:19:27;;;;;;;;;;;20.30;39.60;;;;;;5110222;28;19924;-59
2023/05/26 13:21:55;;;;;;;;;;;20.30;39.60;;;;;;5109935;28;19920;-60
2023/05/26 13:24:22;;;;;;;;;;;20.30;39.70;;;;;;5093954;28;19920;-60
2023/05/26 13:26:49;;;;;;;;;;;20.30;39.80;;;;;;5092611;28;19927;-59
2023/05/26 13:29:16;;;;;;;;;;;20.40;39.90;;;;;;5092574;28;19928;-59
2023/05/26 13:31:43;;;;;;;;;;;20.40;39.90;;;;;;5092020;28;19920;-60
2023/05/26 13:34:09;;;;;;;;;;;20.30;39.80;;;;;;5107260;28;19920;-60
2023/05/26 13:36:36;;;;;;;;;;;20.40;39.90;;;;;;5093022;28;19931;-59
2023/05/26 13:39:04;;;;;;;;;;;20.40;39.80;;;;;;5100979;28;19920;-59
2023/05/26 13:41:31;;;;;;;;;;;20.40;39.70;;;;;;5117846;28;20010;-59
2023/05/26 13:43:58;;;;;;;;;;;20.40;39.80;;;;;;5095040;28;19926;-58
2023/05/26 13:46:25;;;;;;;;;;;20.40;39.80;;;;;;5113445;28;19919;-59
2023/05/26 13:48:52;;;;;;;;;;;20.40;39.90;;;;;;5113545;28;19973;-59
2023/05/26 13:51:19;;;;;;;;;;;20.40;39.90;;;;;;5113981;28;19940;-59
2023/05/26 13:53:45;;;;;;;;;;;20.40;39.90;;;;;;5111556;28;20000;-59
2023/05/26 13:56:13;;;;;;;;;;;20.40;39.90;;;;;;5096286;28;19963;-59
2023/05/26 13:58:40;;;;;;;;;;;20.40;40.00;;;;;;5094546;28;19920;-60
2023/05/26 14:01:07;;;;;;;;;;;20.40;39.90;;;;;;5094115;28;20293;-57
2023/05/26 14:03:34;;;;;;;;;;;20.40;39.80;;;;;;5113566;28;19927;-59
2023/05/26 14:06:01;;;;;;;;;;;20.40;39.80;;;;;;5096352;28;19927;-59
2023/05/26 14:08:28;;;;;;;;;;;20.40;39.90;;;;;;5097246;28;19920;-60
2023/05/26 14:10:55;;;;;;;;;;;20.40;39.80;;;;;;5094961;28;19924;-60
2023/05/26 14:13:23;;;;;;;;;;;20.40;39.80;;;;;;5096150;28;19920;-59
2023/05/26 14:15:51;;;;;;;;;;;20.40;39.80;;;;;;5113363;28;19970;-59
2023/05/26 14:18:18;;;;;;;;;;;20.40;39.80;;;;;;5093349;28;19924;-59